Time;durP1;ratioP1;P1;durP2;ratioP2;P2;SDS_P1;SDS_P2;PMS_P1;PMS_P2;Temp;Humidity;BMP_temperature;BMP_pressure;BME280_temperature;BME280_humidity;BME280_pressure;Samples;Min_cycle;Max_cycle;Signal;HPM_P1;HPM_P2
2022/01/05 00:00:50;;;;;;;3.47;2.30;;;7.30;99.90;;;;;;5088277;28;20192;-76
2022/01/05 00:03:16;;;;;;;2.80;2.20;;;7.30;99.90;;;;;;5088316;28;20185;-77
2022/01/05 00:05:43;;;;;;;5.30;2.47;;;7.30;99.90;;;;;;5084738;28;20184;-79
2022/01/05 00:08:09;;;;;;;3.10;2.53;;;7.40;99.90;;;;;;5075150;28;20236;-76
2022/01/05 00:10:34;;;;;;;2.60;2.40;;;7.30;99.90;;;;;;5082628;28;20265;-76
2022/01/05 00:13:00;;;;;;;3.33;2.40;;;7.40;99.90;;;;;;5084658;28;20376;-75
2022/01/05 00:15:27;;;;;;;2.33;2.00;;;7.40;99.90;;;;;;5073026;28;20174;-75
2022/01/05 00:17:53;;;;;;;4.20;2.63;;;7.40;99.90;;;;;;5087051;28;20216;-75
2022/01/05 00:20:19;;;;;;;4.17;2.80;;;7.40;99.90;;;;;;5082494;28;20185;-75
2022/01/05 00:22:44;;;;;;;3.30;2.53;;;7.40;99.90;;;;;;5089680;27;20682;-76
2022/01/05 00:25:10;;;;;;;4.33;2.73;;;7.40;99.90;;;;;;5089464;28;20202;-76
2022/01/05 00:27:36;;;;;;;4.37;3.07;;;7.40;99.90;;;;;;5090967;28;20206;-76
2022/01/05 00:30:03;;;;;;;6.60;3.73;;;7.50;99.90;;;;;;5073939;28;20196;-76
2022/01/05 00:32:29;;;;;;;4.23;3.10;;;7.40;99.90;;;;;;5088335;28;20215;-76
2022/01/05 00:34:55;;;;;;;3.70;2.57;;;7.40;99.90;;;;;;5076962;28;20265;-77
2022/01/05 00:37:21;;;;;;;3.83;2.73;;;7.50;99.90;;;;;;5091286;28;20189;-76
2022/01/05 00:39:47;;;;;;;4.70;2.67;;;7.50;99.90;;;;;;5088228;28;20212;-76
2022/01/05 00:42:14;;;;;;;2.50;2.30;;;7.50;99.90;;;;;;5087839;28;20195;-76
2022/01/05 00:44:40;;;;;;;3.63;3.07;;;7.50;99.90;;;;;;5085247;28;20180;-76
2022/01/05 00:47:06;;;;;;;2.97;2.53;;;7.50;99.90;;;;;;5091345;28;20176;-76
2022/01/05 00:49:32;;;;;;;4.10;2.80;;;7.50;99.90;;;;;;5089844;28;20249;-76
2022/01/05 00:51:57;;;;;;;4.10;2.80;;;7.50;99.90;;;;;;5089535;28;20199;-76
2022/01/05 00:54:23;;;;;;;2.60;2.40;;;7.50;99.90;;;;;;5086716;28;20208;-76
2022/01/05 00:56:49;;;;;;;4.33;2.30;;;7.40;99.90;;;;;;5088811;28;20180;-76
2022/01/05 00:59:14;;;;;;;2.87;2.43;;;7.40;99.90;;;;;;5090182;28;20558;-76
2022/01/05 01:01:40;;;;;;;2.40;2.20;;;7.40;99.90;;;;;;5091387;28;20672;-76
2022/01/05 01:04:07;;;;;;;2.60;2.20;;;7.40;99.90;;;;;;5089977;28;20184;-76
2022/01/05 01:06:33;;;;;;;3.63;2.43;;;7.40;99.90;;;;;;5090361;28;20225;-76
2022/01/05 01:08:59;;;;;;;3.33;2.70;;;7.40;99.90;;;;;;5088688;28;20279;-76
2022/01/05 01:11:24;;;;;;;2.70;2.50;;;7.40;99.90;;;;;;5091225;28;20196;-76
2022/01/05 01:13:50;;;;;;;2.67;2.43;;;7.40;99.90;;;;;;5069761;28;20223;-76
2022/01/05 01:16:19;;;;;;;3.30;2.43;;;7.40;99.90;;;;;;5090565;28;20523;-76
2022/01/05 01:18:45;;;;;;;2.97;2.67;;;7.40;99.90;;;;;;5090989;28;20197;-76
2022/01/05 01:21:11;;;;;;;3.10;2.70;;;7.50;99.90;;;;;;5082667;28;20192;-76
2022/01/05 01:23:37;;;;;;;3.60;3.07;;;7.40;99.90;;;;;;5089261;28;20188;-76
2022/01/05 01:26:03;;;;;;;3.80;3.40;;;7.40;99.90;;;;;;5090538;28;20623;-76
2022/01/05 01:28:29;;;;;;;4.43;3.70;;;7.40;99.90;;;;;;5088133;28;20204;-76
2022/01/05 01:30:55;;;;;;;5.10;4.27;;;7.40;99.90;;;;;;5074928;28;20237;-76
2022/01/05 01:33:21;;;;;;;5.50;4.77;;;7.40;99.90;;;;;;5079619;28;20212;-76
2022/01/05 01:35:47;;;;;;;5.17;4.67;;;7.40;99.90;;;;;;5090492;28;20587;-76
2022/01/05 01:38:14;;;;;;;4.97;4.40;;;7.40;99.90;;;;;;5078887;28;20220;-76
2022/01/05 01:40:40;;;;;;;5.37;3.90;;;7.40;99.90;;;;;;5088611;28;20198;-76
2022/01/05 01:43:06;;;;;;;4.87;3.87;;;7.40;99.90;;;;;;5088572;28;20176;-76
2022/01/05 01:45:34;;;;;;;6.10;3.90;;;7.40;99.90;;;;;;5082124;28;20173;-76
2022/01/05 01:48:00;;;;;;;4.20;3.30;;;7.40;99.90;;;;;;5084963;28;20196;-76
2022/01/05 01:50:25;;;;;;;8.03;4.43;;;7.40;99.90;;;;;;5089482;28;20189;-76
2022/01/05 01:52:51;;;;;;;5.27;3.60;;;7.40;99.90;;;;;;5088567;28;20302;-76
2022/01/05 01:55:17;;;;;;;3.60;3.10;;;7.40;99.90;;;;;;5089311;28;20172;-76
2022/01/05 01:57:44;;;;;;;4.47;3.60;;;7.40;99.90;;;;;;5082151;28;20220;-76
2022/01/05 02:00:11;;;;;;;7.23;4.77;;;7.40;99.90;;;;;;5052378;28;20534;-76
2022/01/05 02:02:44;;;;;;;3.63;2.80;;;7.50;99.90;;;;;;5075402;28;20551;-76
2022/01/05 02:05:10;;;;;;;3.00;2.70;;;7.40;99.90;;;;;;5076084;28;20176;-76
2022/01/05 02:07:36;;;;;;;2.93;2.63;;;7.40;99.90;;;;;;5088924;28;20200;-76
2022/01/05 02:10:07;;;;;;;3.90;3.03;;;7.40;99.90;;;;;;5085747;28;20180;-76
2022/01/05 02:12:33;;;;;;;3.63;3.17;;;7.40;99.90;;;;;;5072449;28;20212;-76
2022/01/05 02:14:59;;;;;;;2.90;2.50;;;7.40;99.90;;;;;;5092233;28;20550;-76
2022/01/05 02:17:41;;;;;;;3.80;2.90;;;7.40;99.90;;;;;;5075913;28;20211;-76
2022/01/05 02:20:15;;;;;;;5.13;3.10;;;7.40;99.90;;;;;;5093916;28;20168;-76
2022/01/05 02:22:41;;;;;;;4.00;2.40;;;7.50;99.90;;;;;;5094493;28;20184;-76
2022/01/05 02:25:07;;;;;;;2.73;2.40;;;7.50;99.90;;;;;;5094638;28;20307;-76
2022/01/05 02:27:32;;;;;;;2.50;2.30;;;7.50;99.90;;;;;;5090413;28;20207;-76
2022/01/05 02:29:58;;;;;;;2.50;2.30;;;7.50;99.90;;;;;;5093603;28;20255;-76
2022/01/05 02:32:24;;;;;;;2.20;2.00;;;7.50;99.90;;;;;;5092635;28;20294;-76
2022/01/05 02:34:49;;;;;;;2.60;2.40;;;7.40;99.90;;;;;;5094245;28;20265;-76
2022/01/05 02:37:15;;;;;;;4.07;2.40;;;7.40;99.90;;;;;;5094096;28;20200;-76
2022/01/05 02:39:41;;;;;;;2.40;2.20;;;7.50;99.90;;;;;;5094306;28;20179;-76
2022/01/05 02:42:07;;;;;;;2.27;2.07;;;7.40;99.90;;;;;;5094286;28;20218;-76
2022/01/05 02:44:33;;;;;;;2.87;2.07;;;7.40;99.90;;;;;;5094426;28;20229;-76
2022/01/05 02:47:00;;;;;;;2.63;1.93;;;7.50;99.90;;;;;;5090474;28;20192;-76
2022/01/05 02:49:26;;;;;;;2.97;2.20;;;7.50;99.90;;;;;;5091611;28;20252;-76
2022/01/05 02:51:52;;;;;;;2.60;2.37;;;7.40;99.90;;;;;;5093208;28;20196;-76
2022/01/05 02:54:18;;;;;;;2.40;2.20;;;7.40;99.90;;;;;;5092652;28;20203;-76
2022/01/05 02:56:43;;;;;;;3.37;2.10;;;7.40;99.90;;;;;;5092130;28;20245;-77
2022/01/05 02:59:10;;;;;;;2.43;2.20;;;;;;;;;;5091590;28;20200;-76
2022/01/05 03:01:36;;;;;;;3.30;2.30;;;7.50;99.90;;;;;;5090738;28;20208;-76
2022/01/05 03:04:02;;;;;;;3.03;2.43;;;7.40;99.90;;;;;;5090758;28;20647;-76
2022/01/05 03:06:28;;;;;;;3.07;2.00;;;7.40;99.90;;;;;;5092530;28;20259;-75
2022/01/05 03:08:54;;;;;;;3.53;2.00;;;7.40;99.90;;;;;;5094132;28;20722;-76
2022/01/05 03:11:19;;;;;;;2.60;2.30;;;7.40;99.90;;;;;;5090691;28;20294;-76
2022/01/05 03:13:46;;;;;;;2.30;1.77;;;7.40;99.90;;;;;;5089649;28;20204;-76
2022/01/05 03:16:11;;;;;;;4.53;1.80;;;7.50;99.90;;;;;;5093007;28;20172;-76
2022/01/05 03:18:37;;;;;;;2.17;1.97;;;7.10;99.90;;;;;;5093558;28;20189;-76
2022/01/05 03:21:03;;;;;;;2.87;2.20;;;6.40;99.90;;;;;;5092422;28;20173;-76
2022/01/05 03:23:29;;;;;;;2.40;2.20;;;6.00;99.90;;;;;;5093296;28;20173;-76
2022/01/05 03:25:54;;;;;;;3.30;2.27;;;5.80;99.90;;;;;;5092221;28;20594;-76
2022/01/05 03:28:20;;;;;;;2.80;2.43;;;5.60;99.90;;;;;;5092462;28;20889;-76
2022/01/05 03:30:46;;;;;;;2.67;2.30;;;5.50;99.90;;;;;;5091391;28;20180;-76
2022/01/05 03:33:12;;;;;;;4.13;2.50;;;5.50;99.90;;;;;;5073215;28;20580;-76
2022/01/05 03:35:42;;;;;;;3.00;2.70;;;5.50;99.90;;;;;;5079705;28;20189;-76
2022/01/05 03:38:09;;;;;;;3.10;2.67;;;5.50;99.90;;;;;;5092721;28;20223;-76
2022/01/05 03:40:36;;;;;;;3.07;2.40;;;5.40;99.90;;;;;;5091880;28;20225;-76
2022/01/05 03:43:03;;;;;;;3.03;2.73;;;5.30;99.90;;;;;;5074762;28;20200;-76
2022/01/05 03:45:29;;;;;;;3.00;2.70;;;5.30;99.90;;;;;;5090145;28;20180;-76
2022/01/05 03:47:55;;;;;;;2.83;2.47;;;5.20;99.90;;;;;;5087537;28;20221;-76
2022/01/05 03:50:21;;;;;;;2.60;2.37;;;5.20;99.90;;;;;;5093352;28;20216;-76
2022/01/05 03:52:46;;;;;;;4.67;2.70;;;5.10;99.90;;;;;;5091542;28;20203;-76
2022/01/05 03:55:12;;;;;;;2.80;2.53;;;5.10;99.90;;;;;;5090727;28;20172;-76
2022/01/05 03:57:38;;;;;;;4.40;2.80;;;5.10;99.90;;;;;;5091921;28;20185;-76
2022/01/05 04:00:05;;;;;;;3.00;2.80;;;5.10;99.90;;;;;;5091778;28;20660;-76
2022/01/05 04:02:40;;;;;;;2.83;2.40;;;5.00;99.90;;;;;;5090560;28;20184;-76
2022/01/05 04:05:06;;;;;;;2.83;2.50;;;5.00;99.90;;;;;;5091435;28;20644;-76
2022/01/05 04:07:31;;;;;;;2.87;2.67;;;5.00;99.90;;;;;;5102275;28;20201;-76
2022/01/05 04:09:57;;;;;;;2.93;2.63;;;5.00;99.90;;;;;;5091504;28;20238;-76
2022/01/05 04:12:23;;;;;;;3.33;2.87;;;5.00;99.90;;;;;;5091417;28;20204;-76
2022/01/05 04:14:48;;;;;;;3.70;3.17;;;5.00;99.90;;;;;;5091120;28;20187;-76
2022/01/05 04:17:14;;;;;;;3.40;3.10;;;5.00;99.90;;;;;;5090561;28;20745;-76
2022/01/05 04:19:40;;;;;;;3.50;3.20;;;5.00;99.90;;;;;;5090677;28;20496;-76
2022/01/05 04:22:06;;;;;;;3.67;3.37;;;5.00;99.90;;;;;;5085560;28;20264;-76
2022/01/05 04:24:31;;;;;;;3.37;3.07;;;5.00;99.90;;;;;;5091671;28;20165;-76
2022/01/05 04:26:57;;;;;;;3.30;3.00;;;5.00;99.90;;;;;;5089278;28;20267;-76
2022/01/05 04:29:23;;;;;;;3.00;2.70;;;5.00;99.90;;;;;;5089646;28;20191;-76
2022/01/05 04:31:50;;;;;;;4.53;3.43;;;5.00;99.90;;;;;;5089550;28;20259;-76
2022/01/05 04:34:16;;;;;;;3.17;2.90;;;5.10;99.90;;;;;;5089719;28;20219;-76
2022/01/05 04:36:41;;;;;;;4.00;3.60;;;5.10;99.90;;;;;;5090320;28;20539;-76
2022/01/05 04:39:07;;;;;;;5.90;3.40;;;5.10;99.90;;;;;;5089709;28;20656;-76
2022/01/05 04:41:33;;;;;;;2.90;2.70;;;5.10;99.90;;;;;;5078039;28;20276;-76
2022/01/05 04:43:59;;;;;;;2.57;2.13;;;5.10;99.90;;;;;;5090084;28;20180;-76
2022/01/05 04:46:24;;;;;;;2.43;2.23;;;5.00;99.90;;;;;;5088331;28;20176;-76
2022/01/05 04:48:50;;;;;;;2.17;2.00;;;5.10;99.90;;;;;;5087247;28;20204;-76
2022/01/05 04:51:16;;;;;;;2.37;2.17;;;5.10;99.90;;;;;;5082275;28;20180;-76
2022/01/05 04:53:41;;;;;;;2.43;2.20;;;5.10;99.90;;;;;;5091385;28;20212;-76
2022/01/05 04:56:07;;;;;;;3.10;2.23;;;5.10;99.90;;;;;;5089504;28;20172;-76
2022/01/05 04:58:33;;;;;;;2.40;2.20;;;5.10;99.90;;;;;;5089586;28;20203;-76
2022/01/05 05:00:59;;;;;;;2.00;1.90;;;5.10;99.90;;;;;;5090507;28;20184;-76
2022/01/05 05:03:25;;;;;;;2.40;2.20;;;5.10;99.90;;;;;;5090527;28;20168;-76
2022/01/05 05:05:50;;;;;;;2.13;1.93;;;5.10;99.90;;;;;;5090074;28;20241;-76
2022/01/05 05:08:16;;;;;;;2.90;2.10;;;5.10;99.90;;;;;;5089459;28;20746;-76
2022/01/05 05:10:42;;;;;;;3.23;2.63;;;5.10;99.90;;;;;;5086802;28;20718;-76
2022/01/05 05:13:10;;;;;;;4.37;2.30;;;5.20;99.90;;;;;;5096823;28;20674;-76
2022/01/05 05:15:36;;;;;;;2.20;1.90;;;5.10;99.90;;;;;;5074653;28;20173;-76
2022/01/05 05:18:02;;;;;;;2.07;1.80;;;5.10;99.90;;;;;;5073071;28;20211;-76
2022/01/05 05:20:28;;;;;;;3.03;2.07;;;5.20;99.90;;;;;;5085962;28;20195;-77
2022/01/05 05:22:54;;;;;;;2.63;2.07;;;5.20;99.90;;;;;;5090718;28;20663;-76
2022/01/05 05:25:20;;;;;;;2.50;2.00;;;5.20;99.90;;;;;;5068852;28;20231;-76
2022/01/05 05:27:45;;;;;;;2.10;1.90;;;5.20;99.90;;;;;;5074885;28;20204;-76
2022/01/05 05:30:12;;;;;;;4.27;2.10;;;5.20;99.90;;;;;;5088648;28;20232;-76
2022/01/05 05:32:37;;;;;;;5.10;2.20;;;5.20;99.90;;;;;;5084514;28;20237;-76
2022/01/05 05:35:05;;;;;;;4.47;2.00;;;5.20;99.90;;;;;;5077444;28;20189;-76
2022/01/05 05:37:31;;;;;;;3.90;1.70;;;5.20;99.90;;;;;;5088708;28;20220;-76
2022/01/05 05:39:57;;;;;;;4.07;2.00;;;5.20;99.90;;;;;;5089707;28;20216;-76
2022/01/05 05:42:23;;;;;;;3.80;2.00;;;5.30;99.90;;;;;;5084996;28;20181;-76
2022/01/05 05:44:48;;;;;;;4.60;2.10;;;5.30;99.90;;;;;;5081159;28;20266;-76
2022/01/05 05:47:14;;;;;;;3.07;2.10;;;5.30;99.90;;;;;;5089750;28;20231;-76
2022/01/05 05:49:40;;;;;;;3.23;2.20;;;5.20;99.90;;;;;;5088374;28;20188;-76
2022/01/05 05:52:06;;;;;;;3.07;1.93;;;5.30;99.90;;;;;;5067726;28;20241;-76
2022/01/05 05:54:32;;;;;;;4.13;2.07;;;5.40;99.90;;;;;;5090442;28;20176;-76
2022/01/05 05:56:58;;;;;;;6.93;2.27;;;5.40;99.90;;;;;;5068101;28;20254;-76
2022/01/05 05:59:23;;;;;;;4.47;2.00;;;5.40;99.90;;;;;;5075654;28;20756;-76
2022/01/05 06:01:49;;;;;;;3.43;1.83;;;5.40;99.90;;;;;;5086078;28;20195;-76
2022/01/05 06:04:15;;;;;;;3.43;1.90;;;5.40;99.90;;;;;;5080319;28;20192;-76
2022/01/05 06:06:41;;;;;;;3.60;1.87;;;5.40;99.90;;;;;;5075121;28;20530;-76
2022/01/05 06:09:06;;;;;;;4.37;1.90;;;5.40;99.90;;;;;;5089218;28;20587;-76
2022/01/05 06:11:32;;;;;;;4.37;2.00;;;5.40;99.90;;;;;;5088797;28;20177;-76
2022/01/05 06:13:58;;;;;;;4.60;2.10;;;5.40;99.90;;;;;;5088941;28;20215;-76
2022/01/05 06:16:24;;;;;;;4.33;1.83;;;5.40;99.90;;;;;;5087390;28;20613;-76
2022/01/05 06:18:50;;;;;;;4.93;1.80;;;5.40;99.90;;;;;;5088225;28;20571;-76
2022/01/05 06:21:15;;;;;;;5.30;2.13;;;5.30;99.90;;;;;;5069644;28;20176;-76
2022/01/05 06:23:41;;;;;;;5.87;2.07;;;5.30;99.90;;;;;;5088057;28;20176;-76
2022/01/05 06:26:07;;;;;;;4.10;2.00;;;5.30;99.90;;;;;;5089910;28;20176;-76
2022/01/05 06:28:33;;;;;;;11.73;3.40;;;5.30;99.90;;;;;;5078925;28;20193;-76
2022/01/05 06:30:58;;;;;;;7.50;2.80;;;5.20;99.90;;;;;;5080078;28;20234;-76
2022/01/05 06:33:24;;;;;;;4.23;1.60;;;5.20;99.90;;;;;;5087503;28;20250;-76
2022/01/05 06:35:50;;;;;;;4.80;1.70;;;5.20;99.90;;;;;;5061661;28;20682;-76
2022/01/05 06:38:16;;;;;;;4.37;2.23;;;5.20;99.90;;;;;;5088673;28;20770;-76
2022/01/05 06:40:41;;;;;;;4.37;2.00;;;5.10;99.90;;;;;;5088118;28;20187;-75
2022/01/05 06:43:07;;;;;;;3.30;1.90;;;5.10;99.90;;;;;;5090440;28;20724;-76
2022/01/05 06:45:33;;;;;;;4.53;1.83;;;5.10;99.90;;;;;;5088764;28;20176;-76
2022/01/05 06:47:59;;;;;;;5.53;2.00;;;5.00;99.90;;;;;;5088288;28;20200;-76
2022/01/05 06:50:26;;;;;;;4.07;2.27;;;5.00;99.90;;;;;;5086375;28;20172;-76
2022/01/05 06:52:55;;;;;;;3.33;2.07;;;5.00;99.90;;;;;;5087657;28;20287;-76
2022/01/05 06:55:21;;;;;;;5.07;2.10;;;4.90;99.90;;;;;;5086988;28;20173;-76
2022/01/05 06:57:47;;;;;;;6.87;2.20;;;4.90;99.90;;;;;;5090806;28;20197;-76
2022/01/05 07:00:13;;;;;;;6.23;2.40;;;4.80;99.90;;;;;;5091383;28;20517;-76
2022/01/05 07:02:40;;;;;;;3.57;2.00;;;4.70;99.90;;;;;;5088957;28;20173;-76
2022/01/05 07:05:06;;;;;;;5.80;2.00;;;4.70;99.90;;;;;;5090860;28;20173;-76
2022/01/05 07:07:32;;;;;;;3.60;2.10;;;4.60;99.90;;;;;;5097003;28;20212;-75
2022/01/05 07:09:58;;;;;;;7.93;2.10;;;4.50;99.90;;;;;;5089770;28;20624;-78
2022/01/05 07:12:24;;;;;;;4.73;2.20;;;4.50;99.90;;;;;;5074718;28;20189;-72
2022/01/05 07:14:49;;;;;;;4.33;2.13;;;4.50;99.90;;;;;;5092053;28;20189;-72
2022/01/05 07:17:15;;;;;;;4.20;2.10;;;4.40;99.90;;;;;;5092688;28;20216;-71
2022/01/05 07:19:41;;;;;;;6.23;2.20;;;4.40;99.90;;;;;;5087777;28;20184;-71
2022/01/05 07:22:07;;;;;;;4.73;1.90;;;4.50;99.90;;;;;;5091584;28;20184;-72
2022/01/05 07:24:33;;;;;;;3.77;2.10;;;4.40;99.90;;;;;;5092994;28;20176;-73
2022/01/05 07:26:58;;;;;;;3.80;1.90;;;4.40;99.90;;;;;;5100243;28;20172;-74
2022/01/05 07:29:24;;;;;;;6.17;2.40;;;4.30;99.90;;;;;;5091342;28;20173;-72
2022/01/05 07:31:50;;;;;;;6.77;1.90;;;4.30;99.90;;;;;;5093304;28;20173;-72
2022/01/05 07:34:16;;;;;;;5.33;2.00;;;4.20;99.90;;;;;;5090557;28;20377;-71
2022/01/05 07:36:42;;;;;;;4.13;1.80;;;4.10;99.90;;;;;;5092405;28;20184;-71
2022/01/05 07:39:08;;;;;;;3.40;1.70;;;4.20;99.90;;;;;;5091663;28;20193;-72
2022/01/05 07:41:36;;;;;;;7.13;2.00;;;4.10;99.90;;;;;;5089739;28;20173;-72
2022/01/05 07:44:02;;;;;;;5.33;1.90;;;4.10;99.90;;;;;;5088903;28;20216;-71
2022/01/05 07:46:28;;;;;;;6.93;1.90;;;4.10;99.90;;;;;;5089028;28;20168;-71
2022/01/05 07:48:54;;;;;;;7.60;2.13;;;4.00;99.90;;;;;;5092093;28;20206;-71
2022/01/05 07:51:19;;;;;;;6.60;2.13;;;4.00;99.90;;;;;;5087541;28;20181;-71
2022/01/05 07:53:45;;;;;;;4.70;1.90;;;4.10;99.90;;;;;;5089929;28;20188;-71
2022/01/05 07:56:11;;;;;;;5.10;1.70;;;4.00;99.90;;;;;;5088718;28;20185;-71
2022/01/05 07:58:37;;;;;;;3.73;1.80;;;4.00;99.90;;;;;;5087983;28;20227;-71
2022/01/05 08:01:04;;;;;;;6.23;2.37;;;4.10;99.90;;;;;;5088976;28;20273;-72
2022/01/05 08:03:33;;;;;;;7.93;2.00;;;4.10;99.90;;;;;;5081436;28;20980;-72
2022/01/05 08:06:03;;;;;;;5.20;2.07;;;4.10;99.90;;;;;;5088039;28;20173;-74
2022/01/05 08:08:30;;;;;;;6.07;2.20;;;4.10;96.90;;;;;;5075610;28;20201;-73
2022/01/05 08:10:57;;;;;;;6.37;2.07;;;4.20;98.90;;;;;;5082524;28;20191;-71
2022/01/05 08:13:26;;;;;;;7.37;2.10;;;4.20;99.90;;;;;;5081879;28;20254;-71
2022/01/05 08:15:52;;;;;;;5.70;2.07;;;4.20;99.90;;;;;;5090104;28;20177;-71
2022/01/05 08:18:18;;;;;;;7.37;1.80;;;4.20;99.90;;;;;;5087131;28;20291;-71
2022/01/05 08:20:45;;;;;;;4.90;2.00;;;4.20;99.90;;;;;;5090129;28;20180;-71
2022/01/05 08:23:15;;;;;;;5.67;1.90;;;4.20;99.90;;;;;;5071005;28;20177;-71
2022/01/05 08:25:41;;;;;;;9.47;2.40;;;4.20;99.90;;;;;;5082503;28;20219;-71
2022/01/05 08:28:08;;;;;;;4.57;2.70;;;4.20;99.90;;;;;;5091015;28;20232;-71
2022/01/05 08:30:35;;;;;;;7.00;3.10;;;4.20;99.90;;;;;;5091495;28;20180;-71
2022/01/05 08:33:03;;;;;;;7.77;3.30;;;4.20;99.90;;;;;;5091202;28;20216;-71
2022/01/05 08:35:29;;;;;;;5.97;2.83;;;4.20;99.90;;;;;;5090861;28;20181;-71
2022/01/05 08:37:55;;;;;;;6.13;2.97;;;4.20;99.90;;;;;;5104365;28;20256;-72
2022/01/05 08:40:24;;;;;;;7.37;3.03;;;4.20;99.90;;;;;;5095580;28;20656;-72
2022/01/05 08:42:51;;;;;;;9.73;3.50;;;4.20;99.90;;;;;;5084419;28;20189;-72
2022/01/05 08:45:18;;;;;;;7.90;3.63;;;4.20;99.90;;;;;;5071928;28;20235;-72
2022/01/05 08:47:47;;;;;;;9.40;4.47;;;4.20;99.90;;;;;;5090447;28;20204;-72
2022/01/05 08:50:17;;;;;;;10.23;3.43;;;4.30;99.90;;;;;;5090612;28;20259;-72
2022/01/05 08:52:44;;;;;;;8.33;3.03;;;4.30;99.90;;;;;;5090521;28;20287;-71
2022/01/05 08:55:13;;;;;;;7.17;2.40;;;4.40;99.90;;;;;;5090419;28;20226;-72
2022/01/05 08:57:42;;;;;;;10.87;2.77;;;4.40;99.90;;;;;;5090834;28;20206;-72
2022/01/05 09:00:10;;;;;;;5.03;2.40;;;4.40;99.90;;;;;;5090658;28;20234;-72
2022/01/05 09:02:36;;;;;;;7.30;2.23;;;4.50;99.90;;;;;;5080937;28;20185;-71
2022/01/05 09:05:03;;;;;;;9.17;3.10;;;4.50;99.90;;;;;;5091373;28;20189;-72
2022/01/05 09:07:28;;;;;;;7.80;3.07;;;4.50;99.90;;;;;;5091269;28;20200;-72
2022/01/05 09:09:54;;;;;;;9.03;3.07;;;4.50;99.90;;;;;;5090846;28;20695;-72
2022/01/05 09:12:20;;;;;;;7.33;2.57;;;4.50;99.90;;;;;;5091034;28;20195;-72
2022/01/05 09:14:46;;;;;;;5.40;2.37;;;4.50;99.90;;;;;;5089918;28;20179;-72
2022/01/05 09:17:12;;;;;;;6.47;2.23;;;4.50;99.90;;;;;;5091060;28;20172;-72
2022/01/05 09:19:37;;;;;;;5.77;2.37;;;4.50;99.90;;;;;;5090987;28;20176;-72
2022/01/05 09:22:04;;;;;;;9.33;2.40;;;4.50;99.90;;;;;;5089461;28;20238;-72
2022/01/05 09:24:32;;;;;;;6.57;2.40;;;4.60;99.90;;;;;;5089678;28;20277;-71
2022/01/05 09:27:02;;;;;;;5.73;2.30;;;4.60;99.90;;;;;;5088613;28;20270;-72
2022/01/05 09:29:30;;;;;;;7.13;2.27;;;4.70;99.90;;;;;;5090758;28;20192;-72
2022/01/05 09:31:55;;;;;;;6.93;2.83;;;4.70;99.90;;;;;;5091125;28;20196;-72
2022/01/05 09:34:22;;;;;;;7.07;2.20;;;4.70;99.20;;;;;;5090737;28;20204;-71
2022/01/05 09:36:58;;;;;;;7.10;2.10;;;4.70;99.90;;;;;;5090360;28;20183;-72
2022/01/05 09:42:08;;;;;;;7.03;2.03;;;4.70;97.80;;;;;;5091013;28;20251;-72
2022/01/05 09:44:38;;;;;;;6.37;2.13;;;4.70;94.70;;;;;;5089846;28;20279;-72
2022/01/05 09:47:10;;;;;;;7.93;2.07;;;4.70;96.10;;;;;;5091060;28;20592;-72
2022/01/05 09:49:38;;;;;;;7.57;2.57;;;4.70;94.50;;;;;;5090823;28;20246;-72
2022/01/05 09:52:07;;;;;;;10.07;2.37;;;4.70;93.10;;;;;;5089421;28;20185;-72
2022/01/05 09:54:34;;;;;;;7.33;2.20;;;4.80;94.10;;;;;;5081526;28;20250;-72
2022/01/05 09:57:01;;;;;;;10.37;2.43;;;4.70;90.20;;;;;;5078782;28;20176;-72
2022/01/05 09:59:28;;;;;;;8.90;2.43;;;4.80;91.60;;;;;;5099401;28;20263;-72
2022/01/05 10:01:55;;;;;;;7.03;2.07;;;4.80;93.00;;;;;;5082523;28;20180;-71
2022/01/05 10:04:21;;;;;;;8.37;2.40;;;4.80;90.10;;;;;;5082622;28;20200;-72
2022/01/05 10:06:48;;;;;;;4.97;1.83;;;4.80;89.80;;;;;;5088239;28;20181;-72
2022/01/05 10:09:14;;;;;;;7.07;2.30;;;4.80;91.40;;;;;;5088707;28;20208;-71
2022/01/05 10:11:40;;;;;;;10.83;2.37;;;4.80;92.10;;;;;;5086945;28;20187;-72
2022/01/05 10:14:06;;;;;;;7.67;2.23;;;4.80;91.70;;;;;;5065504;28;20205;-72
2022/01/05 10:16:32;;;;;;;4.70;1.80;;;4.90;92.40;;;;;;5089188;28;20219;-72
2022/01/05 10:18:59;;;;;;;6.97;2.17;;;4.80;90.80;;;;;;5072065;28;20201;-72
2022/01/05 10:21:33;;;;;;;10.23;2.40;;;4.90;93.20;;;;;;5076541;28;20181;-71
2022/01/05 10:23:58;;;;;;;13.17;2.53;;;5.00;95.40;;;;;;5088372;28;20176;-72
2022/01/05 10:26:26;;;;;;;8.77;2.23;;;5.00;91.50;;;;;;5097070;28;20239;-72
2022/01/05 10:29:14;;;;;;;9.43;2.57;;;5.00;92.30;;;;;;5088996;28;20234;-72
2022/01/05 10:31:42;;;;;;;9.13;2.57;;;4.90;91.80;;;;;;5079786;28;20719;-72
2022/01/05 10:34:15;;;;;;;7.53;2.40;;;4.90;91.20;;;;;;5084882;28;20200;-72
2022/01/05 10:36:45;;;;;;;10.00;2.50;;;4.90;93.40;;;;;;5094394;28;20683;-72
2022/01/05 10:39:12;;;;;;;11.73;2.70;;;4.90;93.50;;;;;;5092043;28;20220;-71
2022/01/05 10:41:39;;;;;;;7.33;2.43;;;4.90;94.00;;;;;;5097711;28;20203;-71
2022/01/05 10:44:13;;;;;;;7.53;2.47;;;5.00;91.40;;;;;;5095384;28;20306;-71
2022/01/05 10:46:43;;;;;;;11.57;2.90;;;5.00;92.20;;;;;;5093706;28;20184;-71
2022/01/05 10:49:10;;;;;;;11.50;2.70;;;5.10;93.90;;;;;;5079189;28;20201;-71
2022/01/05 10:51:36;;;;;;;6.70;2.60;;;5.10;91.40;;;;;;5081085;28;20280;-71
2022/01/05 10:54:20;;;;;;;7.93;2.70;;;5.20;91.40;;;;;;5091535;28;20771;-71
2022/01/05 10:56:46;;;;;;;8.70;2.43;;;5.30;94.50;;;;;;5088894;28;20180;-70
2022/01/05 10:59:15;;;;;;;9.60;2.50;;;5.40;92.00;;;;;;5092566;28;20635;-70
2022/01/05 11:01:42;;;;;;;6.90;2.60;;;5.40;93.50;;;;;;5088125;28;20246;-71
2022/01/05 11:04:16;;;;;;;8.23;2.33;;;5.50;89.80;;;;;;5092510;28;20182;-71
2022/01/05 11:06:55;;;;;;;8.30;2.57;;;5.50;86.70;;;;;;5085220;28;20233;-71
2022/01/05 11:09:21;;;;;;;11.80;2.80;;;5.50;83.50;;;;;;5091818;28;20675;-72
2022/01/05 11:11:49;;;;;;;9.60;2.47;;;5.50;84.70;;;;;;5093477;28;20728;-74
2022/01/05 11:14:18;;;;;;;8.53;2.60;;;5.50;85.50;;;;;;5093099;28;20200;-72
2022/01/05 11:16:47;;;;;;;9.67;2.60;;;5.40;82.90;;;;;;5091565;28;20237;-73
2022/01/05 11:19:28;;;;;;;8.77;2.80;;;5.40;82.90;;;;;;5093655;28;20192;-74
2022/01/05 11:22:12;;;;;;;7.63;2.57;;;5.40;82.90;;;;;;5097450;28;20180;-75
2022/01/05 11:24:53;;;;;;;10.77;2.80;;;5.40;83.60;;;;;;5073916;28;20202;-76
2022/01/05 11:27:22;;;;;;;6.83;2.40;;;5.40;84.30;;;;;;5092608;28;20192;-74
2022/01/05 11:29:48;;;;;;;9.03;3.10;;;5.50;80.30;;;;;;5095891;28;20238;-74
2022/01/05 11:32:20;;;;;;;8.57;3.23;;;5.50;81.80;;;;;;5092591;28;20176;-74
2022/01/05 11:34:49;;;;;;;12.30;2.90;;;5.60;83.60;;;;;;5088602;28;20211;-75
2022/01/05 11:37:16;;;;;;;8.53;3.93;;;5.60;80.70;;;;;;5093152;28;20695;-74
2022/01/05 11:39:48;;;;;;;10.80;3.90;;;5.60;81.00;;;;;;5091005;28;20222;-75
2022/01/05 11:42:19;;;;;;;7.57;2.77;;;5.60;80.30;;;;;;5071560;28;20184;-74
2022/01/05 11:44:51;;;;;;;9.47;3.37;;;5.60;79.50;;;;;;5082408;28;20184;-74
2022/01/05 11:47:19;;;;;;;8.97;2.80;;;5.60;79.40;;;;;;5090023;28;20207;-75
2022/01/05 11:49:45;;;;;;;10.23;2.67;;;5.70;81.30;;;;;;5091614;28;20188;-74
2022/01/05 11:52:11;;;;;;;7.73;2.70;;;5.60;78.80;;;;;;5092895;28;20177;-74
2022/01/05 11:54:36;;;;;;;7.10;2.40;;;5.60;77.00;;;;;;5076377;28;20249;-76
2022/01/05 11:57:08;;;;;;;6.97;2.90;;;5.50;78.00;;;;;;5067400;28;20184;-75
2022/01/05 11:59:36;;;;;;;6.07;2.70;;;5.50;78.10;;;;;;5092458;28;20185;-73
2022/01/05 12:02:08;;;;;;;10.33;2.50;;;5.50;77.10;;;;;;5084508;28;20185;-74
2022/01/05 12:04:59;;;;;;;10.20;2.93;;;5.50;78.20;;;;;;5092466;28;20196;-77
2022/01/05 12:07:40;;;;;;;8.70;2.53;;;5.60;78.60;;;;;;5090147;28;20246;-76
2022/01/05 12:13:04;;;;;;;7.20;2.60;;;5.50;76.60;;;;;;5091593;28;20613;-76
2022/01/05 12:15:41;;;;;;;7.90;2.30;;;5.50;76.80;;;;;;5105895;28;20180;-76
2022/01/05 12:18:07;;;;;;;7.13;2.27;;;5.50;77.30;;;;;;5081810;28;20195;-76
2022/01/05 12:20:34;;;;;;;7.97;2.40;;;5.50;76.90;;;;;;5098005;28;20169;-76
2022/01/05 12:23:24;;;;;;;5.83;2.07;;;5.50;75.10;;;;;;5091435;28;20271;-76
2022/01/05 12:26:05;;;;;;;6.30;2.40;;;5.50;75.40;;;;;;5087284;28;20233;-77
2022/01/05 12:28:38;;;;;;;7.87;2.43;;;5.50;74.20;;;;;;5094282;28;20203;-74
2022/01/05 12:31:06;;;;;;;8.60;2.17;;;5.50;74.90;;;;;;5090704;28;20201;-74
2022/01/05 12:33:43;;;;;;;8.57;2.40;;;5.50;74.40;;;;;;5087829;28;20230;-76
2022/01/05 12:36:09;;;;;;;6.80;2.73;;;5.40;76.30;;;;;;5088307;28;20651;-75
2022/01/05 12:38:41;;;;;;;6.97;2.53;;;5.40;75.70;;;;;;5099080;28;20270;-75
2022/01/05 12:41:31;;;;;;;6.67;2.43;;;5.30;73.60;;;;;;5090383;28;20172;-76
2022/01/05 12:44:00;;;;;;;5.87;2.40;;;5.30;75.00;;;;;;5080471;28;20234;-76
2022/01/05 12:46:42;;;;;;;6.80;2.50;;;5.30;75.50;;;;;;5088804;28;20180;-75
2022/01/05 12:49:12;;;;;;;10.93;2.90;;;5.30;75.20;;;;;;5092936;28;20448;-76
2022/01/05 12:51:41;;;;;;;10.13;2.73;;;5.30;74.90;;;;;;5089018;28;20176;-76
2022/01/05 12:54:18;;;;;;;7.60;2.60;;;5.30;75.40;;;;;;5086363;28;20671;-76
2022/01/05 12:57:02;;;;;;;8.50;2.83;;;5.30;74.40;;;;;;5078021;28;20169;-75
2022/01/05 12:59:37;;;;;;;7.17;2.50;;;5.20;73.90;;;;;;5099007;27;20168;-76
2022/01/05 13:02:22;;;;;;;10.23;2.80;;;5.30;75.40;;;;;;5085713;28;20180;-76
2022/01/05 13:04:48;;;;;;;10.33;2.77;;;5.20;76.00;;;;;;5072883;28;20184;-75